Terminal Aerodrome Forecast
Issued by NWS

Home | Current Version | Previous Version | Text Only | Print | Product List | Glossary Off
Versions: 1 2 3 4 5 6 7 8 9 10 11 12 13 14 15 16 17

644
FTUS43 KMPX 100523
TAFRWF
TAF
KRWF 100523Z 1006/1106 01007KT P6SM SCT120
     FM100900 02004KT P6SM BKN050 OVC100
     FM101400 04004KT P6SM OVC040 PROB30 1015/1018 4SM -SN OVC030
     FM101800 12005KT P6SM OVC035
     FM102300 07004KT P6SM OVC040
     FM110400 30004KT P6SM BKN050 OVC150=

USA.gov is the U.S. government's official web portal to all federal, state and local government web resources and services.